Time;durP1;ratioP1;P1;durP2;ratioP2;P2;SDS_P1;SDS_P2;PMS_P1;PMS_P2;Temp;Humidity;BMP_temperature;BMP_pressure;BME280_temperature;BME280_humidity;BME280_pressure;Samples;Min_cycle;Max_cycle;Signal;HPM_P1;HPM_P2
2023/12/17 00:00:24;;;;;;;13.00;4.85;;;;;;;6.04;61.51;103329.84;4932184;28;20081;-78
2023/12/17 00:02:50;;;;;;;9.80;5.13;;;;;;;5.79;62.66;103343.19;4948608;28;20066;-77
2023/12/17 00:05:16;;;;;;;10.48;3.80;;;;;;;6.20;61.18;103340.53;4934916;28;20034;-77
2023/12/17 00:07:42;;;;;;;11.15;4.78;;;;;;;6.05;61.68;103344.56;4944928;28;21487;-78
2023/12/17 00:10:08;;;;;;;11.00;5.20;;;;;;;5.51;63.46;103332.28;4932843;28;20494;-77
2023/12/17 00:12:34;;;;;;;7.45;4.07;;;;;;;5.85;62.47;103333.81;4939197;28;20046;-77
2023/12/17 00:14:59;;;;;;;10.90;5.00;;;;;;;5.54;63.40;103324.53;4927084;28;20104;-77
2023/12/17 00:17:25;;;;;;;9.90;4.82;;;;;;;5.43;63.54;103333.81;4933809;28;20782;-77
2023/12/17 00:19:50;;;;;;;13.80;4.40;;;;;;;5.80;62.83;103319.88;4929299;28;20799;-76
2023/12/17 00:22:16;;;;;;;10.73;5.18;;;;;;;6.14;61.81;103319.63;4937988;28;20577;-77
2023/12/17 00:24:41;;;;;;;8.07;4.35;;;;;;;5.95;61.94;103334.88;4945004;28;20058;-77
2023/12/17 00:27:07;;;;;;;14.88;5.18;;;;;;;5.54;63.43;103332.31;4934425;28;20053;-78
2023/12/17 00:29:32;;;;;;;9.45;4.28;;;;;;;5.97;62.17;103343.56;4937324;28;20070;-78
2023/12/17 00:31:58;;;;;;;8.88;4.20;;;;;;;5.82;62.32;103343.28;4950793;28;20035;-78
2023/12/17 00:34:23;;;;;;;8.55;3.95;;;;;;;5.59;63.32;103340.19;4947140;28;20043;-78
2023/12/17 00:36:49;;;;;;;8.32;4.68;;;;;;;5.64;62.90;103346.38;4938946;28;20382;-78
2023/12/17 00:39:14;;;;;;;9.73;4.15;;;;;;;6.17;61.72;103350.84;4930868;28;20729;-78
2023/12/17 00:41:40;;;;;;;9.80;4.18;;;;;;;5.82;62.34;103348.47;4924866;28;20129;-78
2023/12/17 00:44:05;;;;;;;11.57;4.20;;;;;;;5.80;62.16;103361.41;4942984;28;20122;-78
2023/12/17 00:46:31;;;;;;;8.38;3.63;;;;;;;6.29;61.47;103345.91;4941657;28;20047;-78
2023/12/17 00:48:57;;;;;;;13.88;4.95;;;;;;;6.11;61.71;103349.03;4949378;28;20046;-78
2023/12/17 00:51:23;;;;;;;10.45;5.35;;;;;;;5.79;62.99;103353.56;4929925;28;20406;-78
2023/12/17 00:53:48;;;;;;;7.03;4.22;;;;;;;6.18;61.91;103337.03;4955363;28;20038;-78
2023/12/17 00:56:14;;;;;;;8.82;3.95;;;;;;;5.77;62.87;103342.28;4945697;28;20463;-78
2023/12/17 00:58:39;;;;;;;7.25;4.20;;;;;;;6.24;61.55;103331.94;4947386;28;20097;-77
2023/12/17 01:01:05;;;;;;;9.38;4.40;;;;;;;5.71;62.62;103324.91;4960196;28;20051;-79
2023/12/17 01:03:30;;;;;;;9.13;5.80;;;;;;;6.12;62.00;103326.50;4932379;28;20042;-77
2023/12/17 01:05:56;;;;;;;8.85;4.50;;;;;;;6.04;62.21;103321.19;4946782;28;20042;-78
2023/12/17 01:08:21;;;;;;;11.98;5.00;;;;;;;6.00;62.43;103327.19;4949261;28;20053;-77
2023/12/17 01:10:46;;;;;;;16.25;5.07;;;;;;;6.04;62.55;103324.66;4943752;28;20138;-78
2023/12/17 01:13:12;;;;;;;7.53;4.35;;;;;;;5.98;62.72;103318.47;4945439;28;20059;-77
2023/12/17 01:15:37;;;;;;;9.13;4.28;;;;;;;6.07;62.23;103322.09;4933832;28;20062;-78
2023/12/17 01:18:03;;;;;;;9.75;4.55;;;;;;;6.05;62.18;103325.53;4961833;28;20509;-78
2023/12/17 01:20:28;;;;;;;16.23;5.00;;;;;;;6.11;61.92;103327.38;4940495;28;20125;-79
2023/12/17 01:22:54;;;;;;;10.63;4.75;;;;;;;6.00;62.41;103334.97;4919827;28;20138;-78
2023/12/17 01:25:19;;;;;;;6.53;4.40;;;;;;;5.82;63.08;103333.75;4933292;28;20070;-78
2023/12/17 01:27:44;;;;;;;11.52;4.75;;;;;;;6.13;62.11;103334.34;4929652;28;20406;-78
2023/12/17 01:30:10;;;;;;;9.73;4.53;;;;;;;5.88;62.36;103343.38;4952070;28;20150;-79
2023/12/17 01:32:36;;;;;;;10.75;4.40;;;;;;;6.24;61.52;103335.41;4950978;28;20107;-76
2023/12/17 01:35:02;;;;;;;10.73;4.50;;;;;;;6.07;62.41;103332.50;4945174;28;20070;-75
2023/12/17 01:37:28;;;;;;;8.02;5.20;;;;;;;6.20;61.77;103340.53;4943769;28;20168;-76
2023/12/17 01:39:53;;;;;;;8.10;4.25;;;;;;;6.14;61.91;103336.06;4934684;28;20593;-76
2023/12/17 01:42:19;;;;;;;7.40;3.65;;;;;;;6.38;61.38;103343.47;4932027;28;20050;-75
2023/12/17 01:44:44;;;;;;;15.93;5.28;;;;;;;5.90;62.58;103340.81;4930975;28;20232;-73
2023/12/17 01:47:10;;;;;;;9.45;4.97;;;;;;;5.92;62.73;103341.72;4931397;28;20078;-76
2023/12/17 01:49:36;;;;;;;8.05;4.65;;;;;;;6.01;62.30;103340.16;4940722;28;20047;-76
2023/12/17 01:52:01;;;;;;;10.20;4.47;;;;;;;6.45;61.10;103341.84;4939974;28;20856;-75
2023/12/17 01:54:27;;;;;;;14.45;5.03;;;;;;;6.16;62.06;103343.91;4939566;28;20410;-74
2023/12/17 01:56:53;;;;;;;8.07;4.00;;;;;;;6.00;62.48;103341.03;4938941;28;20165;-76
2023/12/17 01:59:19;;;;;;;9.48;4.45;;;;;;;6.12;62.45;103342.09;4940616;28;20047;-76
2023/12/17 02:01:47;;;;;;;11.60;4.47;;;;;;;5.94;62.85;103343.50;4937957;28;20129;-77
2023/12/17 02:04:12;;;;;;;6.40;4.10;;;;;;;6.09;62.11;103348.13;4939822;28;20108;-76
2023/12/17 02:06:38;;;;;;;6.22;4.10;;;;;;;6.25;61.72;103338.88;4923741;28;20039;-76
2023/12/17 02:09:04;;;;;;;12.02;4.30;;;;;;;6.19;62.13;103329.22;4944505;28;20173;-76
2023/12/17 02:11:30;;;;;;;7.07;3.90;;;;;;;5.98;62.64;103339.25;4941756;28;20070;-75
2023/12/17 02:13:55;;;;;;;6.65;3.88;;;;;;;5.86;63.04;103337.31;4942715;28;20521;-75
2023/12/17 02:16:21;;;;;;;9.88;3.97;;;;;;;6.38;61.43;103335.66;4920931;28;20043;-76
2023/12/17 02:18:46;;;;;;;12.00;4.32;;;;;;;6.13;61.60;103328.25;4936427;28;20101;-75
2023/12/17 02:21:12;;;;;;;9.55;3.70;;;;;;;6.08;62.32;103326.47;4943815;28;20050;-74
2023/12/17 02:23:37;;;;;;;10.88;4.82;;;;;;;5.95;63.11;103313.22;4944227;28;20043;-73
2023/12/17 02:26:03;;;;;;;7.95;5.05;;;;;;;5.78;63.47;103323.28;4943715;28;20256;-74
2023/12/17 02:28:29;;;;;;;14.50;5.47;;;;;;;5.83;63.08;103330.31;4938798;28;20043;-73
2023/12/17 02:30:55;;;;;;;8.75;4.65;;;;;;;6.10;62.53;103329.06;4926669;28;20034;-76
2023/12/17 02:33:20;;;;;;;7.22;3.92;;;;;;;6.32;61.60;103334.69;4940242;28;20065;-73
2023/12/17 02:35:46;;;;;;;13.48;4.25;;;;;;;5.95;62.96;103332.28;4924829;28;20038;-74
2023/12/17 02:38:11;;;;;;;8.82;3.83;;;;;;;5.87;63.18;103341.63;4943981;28;20570;-74
2023/12/17 02:40:37;;;;;;;12.68;4.53;;;;;;;6.09;62.24;103323.00;4944972;28;20038;-74
2023/12/17 02:43:02;;;;;;;7.45;3.95;;;;;;;5.92;62.78;103315.75;4943149;28;20218;-72
2023/12/17 02:45:28;;;;;;;8.43;3.63;;;;;;;6.07;62.41;103309.13;4945959;28;20031;-75
2023/12/17 02:47:53;;;;;;;6.68;3.15;;;;;;;6.08;62.48;103300.50;4934639;28;20282;-74
2023/12/17 02:50:19;;;;;;;7.75;3.22;;;;;;;6.13;61.74;103310.06;4942165;28;20041;-75
2023/12/17 02:52:44;;;;;;;12.30;5.22;;;;;;;5.70;63.95;103312.75;4934860;28;20040;-77
2023/12/17 02:55:10;;;;;;;8.13;4.00;;;;;;;5.92;62.99;103303.66;4965598;28;20277;-76
2023/12/17 02:57:37;;;;;;;6.32;3.33;;;;;;;5.97;62.25;103312.44;4957118;28;20035;-73
2023/12/17 03:00:03;;;;;;;8.27;4.07;;;;;;;6.20;61.66;103291.19;4951968;28;20681;-73
2023/12/17 03:02:29;;;;;;;7.82;3.90;;;;;;;6.30;61.69;103285.31;4940652;28;20030;-73
2023/12/17 03:04:54;;;;;;;10.90;4.50;;;;;;;6.43;61.24;103276.00;4926420;28;20625;-75
2023/12/17 03:07:20;;;;;;;4.90;3.53;;;;;;;6.45;60.98;103280.34;4941856;28;20035;-74
2023/12/17 03:09:47;;;;;;;4.93;3.40;;;;;;;6.45;61.24;103275.16;4940283;28;20055;-73
2023/12/17 03:12:13;;;;;;;5.78;2.95;;;;;;;6.37;61.47;103281.94;4934890;28;20046;-73
2023/12/17 03:14:39;;;;;;;10.48;2.83;;;;;;;5.65;63.70;103278.06;4939868;28;20794;-74
2023/12/17 03:17:04;;;;;;;6.63;3.80;;;;;;;6.04;62.39;103285.72;4948283;28;20097;-73
2023/12/17 03:19:30;;;;;;;8.25;3.58;;;;;;;6.14;62.21;103297.13;4939921;28;20075;-74
2023/12/17 03:21:55;;;;;;;7.38;3.22;;;;;;;6.05;62.36;103295.25;4939384;28;20049;-73
2023/12/17 03:24:21;;;;;;;11.85;3.00;;;;;;;6.38;61.66;103294.09;4944431;28;20062;-73
2023/12/17 03:26:46;;;;;;;11.77;4.70;;;;;;;6.19;61.63;103287.69;4941123;28;20127;-73
2023/12/17 03:29:12;;;;;;;13.80;3.92;;;;;;;6.02;62.47;103290.00;4933653;28;20639;-73
2023/12/17 03:31:37;;;;;;;4.88;2.60;;;;;;;6.18;61.95;103285.09;4933771;28;20045;-74
2023/12/17 03:34:03;;;;;;;7.68;3.60;;;;;;;6.19;62.05;103281.63;4944780;28;20048;-73
2023/12/17 03:36:28;;;;;;;6.47;3.05;;;;;;;6.04;61.86;103275.34;4939160;28;20061;-73
2023/12/17 03:38:54;;;;;;;5.47;3.33;;;;;;;6.35;61.17;103275.00;4937127;28;20043;-74
2023/12/17 03:41:21;;;;;;;6.70;3.05;;;;;;;6.12;62.14;103275.44;4951570;28;20069;-75
2023/12/17 03:43:49;;;;;;;6.63;3.33;;;;;;;6.63;60.54;103284.09;4940421;28;20043;-75
2023/12/17 03:46:14;;;;;;;9.68;3.53;;;;;;;6.44;60.96;103272.53;4925924;28;20043;-74
2023/12/17 03:48:40;;;;;;;9.40;3.75;;;;;;;6.14;62.44;103275.47;4943165;28;20781;-74
2023/12/17 03:51:05;;;;;;;12.70;3.70;;;;;;;5.85;62.45;103266.31;4931933;28;20052;-76
2023/12/17 03:53:31;;;;;;;7.25;3.45;;;;;;;6.38;61.49;103273.31;4926518;28;20046;-74
2023/12/17 03:55:56;;;;;;;5.07;3.22;;;;;;;6.05;62.36;103278.78;4942495;28;20031;-74
2023/12/17 03:58:21;;;;;;;14.98;4.65;;;;;;;5.75;62.74;103279.09;4928628;28;20054;-74
2023/12/17 04:00:47;;;;;;;7.80;3.80;;;;;;;6.37;61.23;103288.88;4944699;28;20046;-74
2023/12/17 04:03:12;;;;;;;9.88;4.00;;;;;;;6.31;61.72;103278.38;4941454;28;20047;-74
2023/12/17 04:05:38;;;;;;;8.77;3.90;;;;;;;5.91;62.85;103281.16;4935386;28;20045;-73
2023/12/17 04:08:03;;;;;;;11.20;2.90;;;;;;;5.76;63.52;103292.13;4940133;28;20055;-73
2023/12/17 04:10:29;;;;;;;8.93;3.03;;;;;;;5.94;62.82;103294.19;4942879;28;20031;-73
2023/12/17 04:12:54;;;;;;;2.97;2.47;;;;;;;6.15;62.21;103295.41;4947620;28;20059;-73
2023/12/17 04:15:19;;;;;;;13.20;3.17;;;;;;;6.06;62.22;103281.44;4943525;28;20122;-74
2023/12/17 04:17:45;;;;;;;6.47;3.33;;;;;;;6.20;61.93;103284.25;4949010;28;20035;-74
2023/12/17 04:20:11;;;;;;;9.55;3.28;;;;;;;5.96;62.26;103274.31;4928613;28;20039;-75
2023/12/17 04:22:36;;;;;;;3.70;2.45;;;;;;;5.96;62.21;103263.94;4935432;28;20133;-73
2023/12/17 04:25:02;;;;;;;3.95;2.50;;;;;;;5.78;62.68;103258.41;4940249;28;20546;-73
2023/12/17 04:27:27;;;;;;;8.30;3.70;;;;;;;6.14;61.57;103252.97;4955478;28;20046;-73
2023/12/17 04:29:52;;;;;;;4.93;2.70;;;;;;;6.08;62.24;103264.16;4948025;28;20465;-73
2023/12/17 04:32:18;;;;;;;4.72;2.90;;;;;;;6.12;62.42;103261.59;4967166;28;20490;-73
2023/12/17 04:34:44;;;;;;;6.55;3.35;;;;;;;6.08;62.32;103263.25;4942999;28;20135;-74
2023/12/17 04:37:09;;;;;;;5.78;3.25;;;;;;;6.00;62.27;103239.78;4946851;28;20202;-74
2023/12/17 04:39:34;;;;;;;3.92;2.88;;;;;;;6.20;61.55;103257.41;4948821;28;20050;-74
2023/12/17 04:42:00;;;;;;;4.07;2.92;;;;;;;6.29;61.04;103242.00;4927363;28;20526;-74
2023/12/17 04:44:25;;;;;;;6.82;3.30;;;;;;;6.44;60.64;103249.16;4937875;28;20526;-75
2023/12/17 04:46:51;;;;;;;4.43;2.92;;;;;;;6.12;61.62;103249.47;4939739;28;20505;-74
2023/12/17 04:49:16;;;;;;;9.52;2.80;;;;;;;6.30;61.39;103251.53;4923253;28;20053;-75
2023/12/17 04:51:42;;;;;;;4.03;2.42;;;;;;;5.70;63.06;103266.03;4924257;28;20039;-75
2023/12/17 04:54:07;;;;;;;8.50;3.33;;;;;;;5.97;62.10;103250.13;4939552;28;20047;-76
2023/12/17 04:56:33;;;;;;;10.30;2.97;;;;;;;6.10;61.62;103256.38;4939728;28;20120;-76
2023/12/17 04:58:59;;;;;;;8.88;2.78;;;;;;;6.09;61.49;103255.50;4936797;28;20050;-76
2023/12/17 05:01:24;;;;;;;3.78;2.50;;;;;;;5.99;62.16;103253.59;4946899;28;20124;-75
2023/12/17 05:03:50;;;;;;;5.03;2.95;;;;;;;6.56;60.39;103254.56;4948628;28;20047;-78
2023/12/17 05:06:15;;;;;;;6.07;2.95;;;;;;;5.85;62.26;103255.06;4937311;28;20070;-76
2023/12/17 05:08:41;;;;;;;8.18;2.70;;;;;;;6.09;61.92;103255.50;4942186;28;20137;-76
2023/12/17 05:11:07;;;;;;;6.28;3.03;;;;;;;6.07;61.60;103246.81;4941960;28;20039;-75
2023/12/17 05:13:32;;;;;;;3.10;2.22;;;;;;;6.20;61.09;103257.41;4930169;28;20081;-77
2023/12/17 05:15:57;;;;;;;3.35;2.25;;;;;;;5.96;61.70;103257.88;4921491;28;20491;-76
2023/12/17 05:18:23;;;;;;;10.27;2.65;;;;;;;6.09;61.10;103252.91;4928111;28;20050;-77
2023/12/17 05:20:49;;;;;;;5.07;2.83;;;;;;;5.66;62.43;103254.75;4925890;28;20142;-76
2023/12/17 05:23:15;;;;;;;4.18;2.53;;;;;;;5.24;64.12;103257.38;4939595;28;20600;-74
2023/12/17 05:25:40;;;;;;;7.28;2.30;;;;;;;6.05;61.34;103261.50;4942236;28;20574;-75
2023/12/17 05:28:08;;;;;;;8.27;2.53;;;;;;;5.67;62.12;103261.66;4938679;28;20054;-75
2023/12/17 05:30:34;;;;;;;6.78;2.35;;;;;;;6.35;60.67;103262.91;4927930;28;20045;-74
2023/12/17 05:33:00;;;;;;;5.07;3.42;;;;;;;5.94;61.37;103254.38;4925781;28;20047;-73
2023/12/17 05:35:25;;;;;;;4.88;3.05;;;;;;;5.68;62.18;103267.72;4927559;28;20346;-73
2023/12/17 05:37:51;;;;;;;9.30;2.70;;;;;;;5.97;61.59;103252.72;4922355;28;20084;-73
2023/12/17 05:40:16;;;;;;;5.05;2.33;;;;;;;5.91;61.98;103250.00;4937726;28;20041;-73
2023/12/17 05:42:41;;;;;;;5.75;2.67;;;;;;;5.82;61.88;103247.25;4948196;28;20030;-73
2023/12/17 05:45:07;;;;;;;3.67;2.20;;;;;;;5.84;61.65;103263.72;4923394;28;20425;-75
2023/12/17 05:47:33;;;;;;;5.60;2.25;;;;;;;6.32;60.40;103261.97;4940118;28;20034;-74
2023/12/17 05:49:58;;;;;;;3.50;2.40;;;;;;;6.54;59.65;103263.19;4926014;28;20878;-73
2023/12/17 05:52:24;;;;;;;6.35;2.78;;;;;;;5.97;61.21;103263.09;4934221;28;20676;-74
2023/12/17 05:54:50;;;;;;;3.45;2.03;;;;;;;6.11;60.60;103252.94;4943900;28;20042;-74
2023/12/17 05:57:15;;;;;;;7.32;2.65;;;;;;;5.76;61.63;103255.78;4927428;28;20070;-73
2023/12/17 05:59:41;;;;;;;3.47;2.47;;;;;;;5.82;61.57;103265.41;4943514;28;20266;-73
2023/12/17 06:02:06;;;;;;;1.83;1.60;;;;;;;5.72;61.39;103263.50;4943648;28;20445;-74
2023/12/17 06:04:32;;;;;;;3.35;2.47;;;;;;;5.76;62.09;103250.59;4940488;28;20087;-73
2023/12/17 06:06:58;;;;;;;8.05;2.45;;;;;;;5.88;60.91;103260.31;4918037;28;20038;-74
2023/12/17 06:09:24;;;;;;;3.90;2.80;;;;;;;6.08;60.35;103253.78;4948591;28;20050;-73
2023/12/17 06:11:50;;;;;;;7.05;2.63;;;;;;;5.60;61.86;103262.41;4937090;28;20042;-73
2023/12/17 06:14:17;;;;;;;7.65;2.47;;;;;;;5.62;61.93;103268.50;4928866;28;20310;-74
2023/12/17 06:16:43;;;;;;;12.32;3.63;;;;;;;5.58;62.09;103253.72;4937986;28;20521;-73
2023/12/17 06:19:08;;;;;;;6.65;2.78;;;;;;;6.09;60.36;103245.13;4929275;28;20048;-74
2023/12/17 06:21:34;;;;;;;5.35;2.42;;;;;;;5.90;61.08;103237.00;4929319;28;20616;-74
2023/12/17 06:23:59;;;;;;;3.95;2.50;;;;;;;5.87;61.04;103233.50;4933405;28;20055;-75
2023/12/17 06:26:26;;;;;;;4.57;2.55;;;;;;;5.69;62.01;103230.56;4944319;28;20039;-74
2023/12/17 06:28:51;;;;;;;5.82;2.75;;;;;;;5.74;61.22;103226.34;4923065;28;20476;-73
2023/12/17 06:31:17;;;;;;;8.43;4.05;;;;;;;5.91;60.81;103243.94;4928396;28;20043;-77
2023/12/17 06:33:43;;;;;;;6.63;2.97;;;;;;;5.79;61.38;103245.47;4946533;28;20062;-78
2023/12/17 06:36:08;;;;;;;13.70;3.75;;;;;;;6.02;60.63;103245.00;4923105;28;20043;-74
2023/12/17 06:38:34;;;;;;;8.43;3.45;;;;;;;5.85;61.15;103249.88;4938790;28;20089;-76
2023/12/17 06:40:59;;;;;;;5.05;4.00;;;;;;;5.70;61.78;103254.78;4929484;28;20038;-75
2023/12/17 06:43:25;;;;;;;7.40;3.78;;;;;;;5.58;62.01;103245.94;4946928;28;20046;-74
2023/12/17 06:45:50;;;;;;;4.82;2.90;;;;;;;5.53;61.76;103232.03;4931814;28;20613;-74
2023/12/17 06:48:16;;;;;;;4.10;2.78;;;;;;;6.19;59.70;103235.75;4938253;28;20657;-75
2023/12/17 06:50:42;;;;;;;6.15;3.08;;;;;;;5.97;60.36;103229.34;4932929;28;20057;-77
2023/12/17 06:53:07;;;;;;;7.30;4.00;;;;;;;5.79;60.61;103236.78;4934812;28;20134;-75
2023/12/17 06:55:32;;;;;;;10.82;3.42;;;;;;;5.74;61.14;103234.13;4948389;28;20038;-75
2023/12/17 06:57:58;;;;;;;9.75;4.22;;;;;;;6.11;59.91;103228.72;4942845;28;20096;-75
2023/12/17 07:00:24;;;;;;;4.68;3.33;;;;;;;6.11;59.67;103242.56;4946001;28;20041;-74
2023/12/17 07:02:51;;;;;;;12.90;3.88;;;;;;;5.82;60.39;103242.06;4925282;28;20605;-75
2023/12/17 07:05:16;;;;;;;12.38;5.15;;;;;;;5.72;61.28;103232.34;4926358;28;20146;-75
2023/12/17 07:07:48;;;;;;;9.13;3.97;;;;;;;6.03;60.04;103228.56;4925222;28;20045;-76
2023/12/17 07:10:14;;;;;;;8.40;3.83;;;;;;;5.38;62.00;103232.59;4930375;28;20038;-74
2023/12/17 07:12:40;;;;;;;7.05;4.35;;;;;;;5.43;61.68;103241.31;4945691;28;20045;-76
2023/12/17 07:15:07;;;;;;;9.10;4.93;;;;;;;5.89;60.55;103238.72;4940264;28;20491;-74
2023/12/17 07:17:32;;;;;;;8.35;4.50;;;;;;;5.48;61.84;103235.34;4930819;28;20045;-75
2023/12/17 07:19:58;;;;;;;12.98;4.70;;;;;;;5.97;60.63;103218.06;4948668;28;20486;-77
2023/12/17 07:22:24;;;;;;;6.70;3.95;;;;;;;6.01;59.97;103220.75;4948365;28;20556;-74
2023/12/17 07:24:50;;;;;;;6.15;4.38;;;;;;;5.40;62.18;103227.44;4930882;28;20047;-75
2023/12/17 07:27:15;;;;;;;10.65;5.10;;;;;;;5.32;61.84;103223.81;4928171;28;20039;-76
2023/12/17 07:29:42;;;;;;;11.27;5.18;;;;;;;5.03;63.20;103224.09;4944213;28;20093;-75
2023/12/17 07:32:08;;;;;;;9.50;5.45;;;;;;;5.42;61.55;103223.16;4948689;28;20092;-76
2023/12/17 07:34:34;;;;;;;12.02;4.55;;;;;;;5.74;60.60;103215.09;4943394;28;20563;-75
2023/12/17 07:37:02;;;;;;;12.70;5.63;;;;;;;5.38;61.90;103217.03;4946109;28;20060;-75
2023/12/17 07:39:28;;;;;;;13.77;5.65;;;;;;;5.63;61.71;103225.25;4926770;28;20451;-76
2023/12/17 07:41:53;;;;;;;9.38;5.35;;;;;;;5.37;62.47;103236.03;4948181;28;20108;-75
2023/12/17 07:44:19;;;;;;;10.05;5.65;;;;;;;5.41;62.58;103232.66;4925582;28;20051;-75
2023/12/17 07:46:45;;;;;;;14.43;7.03;;;;;;;5.20;62.46;103240.88;4947458;28;20148;-76
2023/12/17 07:49:10;;;;;;;14.27;6.80;;;;;;;5.50;61.66;103239.72;4929557;28;20058;-76
2023/12/17 07:51:38;;;;;;;14.15;6.07;;;;;;;5.53;61.50;103241.53;4937842;28;20064;-77
2023/12/17 07:54:04;;;;;;;16.73;6.22;;;;;;;5.08;62.71;103226.78;4947394;28;20069;-75
2023/12/17 07:56:31;;;;;;;15.70;6.38;;;;;;;4.95;62.84;103242.09;4935959;28;20971;-76
2023/12/17 07:58:56;;;;;;;14.77;5.50;;;;;;;4.96;62.32;103237.78;4938820;28;20043;-75
2023/12/17 08:01:32;;;;;;;8.10;5.15;;;;;;;5.43;61.45;103241.31;4925215;28;20347;-77
2023/12/17 08:03:58;;;;;;;9.60;5.60;;;;;;;5.44;61.55;103224.94;4932622;28;20673;-76
2023/12/17 08:06:24;;;;;;;9.13;5.80;;;;;;;5.23;61.80;103228.00;4949823;28;20045;-75
2023/12/17 08:08:50;;;;;;;9.05;4.85;;;;;;;5.28;61.93;103240.16;4946181;28;20455;-74
2023/12/17 08:11:16;;;;;;;9.23;4.70;;;;;;;4.83;62.79;103232.31;4942867;28;20817;-77
2023/12/17 08:13:42;;;;;;;12.27;5.10;;;;;;;5.07;62.58;103231.09;4935893;28;20119;-76
2023/12/17 08:16:08;;;;;;;6.07;3.92;;;;;;;5.20;61.86;103242.59;4932603;28;20166;-77
2023/12/17 08:18:34;;;;;;;5.90;3.63;;;;;;;4.86;62.54;103231.50;4948884;28;20065;-79
2023/12/17 08:20:59;;;;;;;14.30;4.40;;;;;;;5.23;61.59;103233.19;4932560;28;20035;-76
2023/12/17 08:23:26;;;;;;;7.95;4.22;;;;;;;5.07;61.65;103222.44;4946371;28;20043;-76
2023/12/17 08:25:52;;;;;;;11.48;4.80;;;;;;;5.06;62.13;103247.50;4930950;28;20172;-76
2023/12/17 08:28:19;;;;;;;9.25;4.82;;;;;;;4.93;62.53;103227.34;4932999;28;21055;-75
2023/12/17 08:30:45;;;;;;;7.50;4.55;;;;;;;4.94;62.86;103224.78;4942144;28;20030;-75
2023/12/17 08:33:11;;;;;;;13.48;4.82;;;;;;;4.79;63.55;103230.47;4942679;28;20582;-77
2023/12/17 08:35:37;;;;;;;7.15;4.28;;;;;;;5.36;61.93;103230.81;4947771;28;20137;-75
2023/12/17 08:38:05;;;;;;;10.23;4.57;;;;;;;5.26;61.70;103227.19;4929340;28;20595;-77
2023/12/17 08:40:33;;;;;;;8.32;4.32;;;;;;;4.94;62.87;103218.72;4934253;28;20046;-76
2023/12/17 08:42:59;;;;;;;8.48;4.18;;;;;;;5.20;62.25;103229.63;4944950;28;20049;-76
2023/12/17 08:45:24;;;;;;;6.00;3.35;;;;;;;5.41;61.87;103226.56;4935707;28;20104;-76
2023/12/17 08:47:50;;;;;;;8.52;3.63;;;;;;;5.42;61.63;103225.75;4932849;28;20031;-77
2023/12/17 08:50:16;;;;;;;16.17;3.72;;;;;;;5.67;61.35;103212.38;4929393;28;20913;-75
2023/12/17 08:52:41;;;;;;;8.40;3.55;;;;;;;5.11;62.78;103211.31;4923640;28;20422;-78
2023/12/17 08:55:07;;;;;;;13.10;3.47;;;;;;;4.93;62.82;103211.81;4919159;28;20039;-75
2023/12/17 08:57:32;;;;;;;6.13;3.55;;;;;;;5.01;62.31;103205.94;4942661;28;20070;-76
2023/12/17 08:59:58;;;;;;;5.20;2.75;;;;;;;5.41;62.14;103217.09;4928967;28;20041;-77
2023/12/17 09:02:26;;;;;;;5.85;3.40;;;;;;;5.04;62.26;103210.31;4942301;28;20035;-76
2023/12/17 09:04:53;;;;;;;7.18;2.70;;;;;;;5.13;62.39;103209.63;4930879;28;20309;-78
2023/12/17 09:07:19;;;;;;;5.57;3.00;;;;;;;5.23;62.39;103207.25;4935076;28;20039;-77
2023/12/17 09:09:46;;;;;;;7.80;3.63;;;;;;;5.57;61.42;103196.59;4940343;28;20059;-77
2023/12/17 09:12:11;;;;;;;6.10;3.45;;;;;;;5.12;62.78;103208.72;4923510;28;20043;-75
2023/12/17 09:14:37;;;;;;;8.40;3.45;;;;;;;4.91;63.07;103205.72;4937923;28;20065;-78
2023/12/17 09:17:03;;;;;;;11.27;3.20;;;;;;;5.34;62.51;103199.66;4919220;28;20031;-76
2023/12/17 09:19:28;;;;;;;6.47;2.90;;;;;;;5.69;61.15;103199.44;4927988;28;20878;-76
2023/12/17 09:21:54;;;;;;;17.70;4.15;;;;;;;5.44;62.21;103196.41;4925243;28;20046;-74
2023/12/17 09:24:20;;;;;;;9.15;4.50;;;;;;;5.31;62.38;103203.94;4923805;28;20047;-76
2023/12/17 09:26:45;;;;;;;11.43;4.75;;;;;;;5.42;62.14;103207.59;4945495;28;20038;-77
2023/12/17 09:29:11;;;;;;;10.57;3.75;;;;;;;5.51;61.54;103192.19;4942948;28;20047;-76
2023/12/17 09:31:36;;;;;;;9.32;3.20;;;;;;;6.02;60.38;103188.75;4947651;28;20046;-77
2023/12/17 09:34:02;;;;;;;10.95;3.42;;;;;;;5.43;61.79;103184.25;4929548;28;20134;-76
2023/12/17 09:36:28;;;;;;;7.57;4.00;;;;;;;5.24;62.27;103177.00;4924456;28;20779;-75
2023/12/17 09:38:53;;;;;;;7.82;3.80;;;;;;;5.58;61.51;103178.50;4948832;28;20138;-76
2023/12/17 09:41:19;;;;;;;14.63;5.03;;;;;;;5.13;62.69;103179.38;4937667;28;20066;-76
2023/12/17 09:43:46;;;;;;;11.38;4.70;;;;;;;5.60;61.70;103183.72;4930329;28;20039;-76
2023/12/17 09:46:12;;;;;;;7.38;3.75;;;;;;;5.76;61.00;103187.44;4939227;28;20046;-75
2023/12/17 09:48:37;;;;;;;11.15;4.32;;;;;;;5.12;62.32;103184.53;4939971;28;20244;-75
2023/12/17 09:51:03;;;;;;;14.50;6.03;;;;;;;5.25;62.83;103189.97;4934118;28;20034;-77
2023/12/17 09:53:34;;;;;;;10.07;3.90;;;;;;;5.21;62.67;103172.63;4922589;28;20035;-76
2023/12/17 09:55:59;;;;;;;7.13;4.53;;;;;;;5.25;62.05;103184.78;4939183;28;20146;-76
2023/12/17 09:58:28;;;;;;;11.32;6.13;;;;;;;5.25;62.10;103183.91;4928813;28;20743;-77
2023/12/17 10:00:54;;;;;;;13.73;5.38;;;;;;;5.21;62.53;103176.94;4948349;28;20438;-77
2023/12/17 10:03:21;;;;;;;7.47;5.43;;;;;;;5.45;62.23;103161.81;4946206;28;20051;-76
2023/12/17 10:05:53;;;;;;;13.30;6.43;;;;;;;5.35;62.22;103169.44;4928622;28;20035;-77
2023/12/17 10:08:20;;;;;;;10.77;5.97;;;;;;;4.54;63.72;103172.09;4937991;28;21011;-77
2023/12/17 10:10:46;;;;;;;9.38;5.65;;;;;;;4.99;63.45;103171.34;4945178;28;20517;-76
2023/12/17 10:13:18;;;;;;;20.88;5.50;;;;;;;4.74;63.48;103159.53;4946273;28;20134;-75
2023/12/17 10:15:48;;;;;;;12.52;5.60;;;;;;;4.92;63.75;103169.47;4939209;28;20207;-76
2023/12/17 10:18:14;;;;;;;7.88;4.43;;;;;;;5.19;62.91;103158.75;4937684;28;20057;-76
2023/12/17 10:20:39;;;;;;;11.90;5.68;;;;;;;5.38;62.25;103151.31;4929078;28;20046;-76
2023/12/17 10:23:05;;;;;;;10.75;5.15;;;;;;;5.10;62.17;103157.69;4945510;28;20062;-78
2023/12/17 10:25:31;;;;;;;15.93;5.70;;;;;;;5.16;62.66;103152.63;4944738;28;20039;-76
2023/12/17 10:27:58;;;;;;;11.93;4.95;;;;;;;5.55;61.84;103141.25;4939615;28;20054;-76
2023/12/17 10:30:29;;;;;;;11.68;4.70;;;;;;;5.58;61.20;103142.16;4944367;28;20050;-76
2023/12/17 10:32:55;;;;;;;12.63;6.00;;;;;;;5.38;62.03;103149.59;4930933;28;20120;-76
2023/12/17 10:35:25;;;;;;;10.80;6.20;;;;;;;5.69;61.87;103137.16;4941243;28;20754;-76
2023/12/17 10:38:03;;;;;;;11.75;6.20;;;;;;;5.60;61.77;103140.47;4930253;28;20039;-76
2023/12/17 10:40:30;;;;;;;10.90;5.63;;;;;;;5.85;60.75;103138.28;4923325;28;20027;-76
2023/12/17 10:42:57;;;;;;;17.33;8.00;;;;;;;6.05;60.33;103144.66;4931623;28;20278;-75
2023/12/17 10:45:23;;;;;;;12.25;5.22;;;;;;;5.32;61.86;103144.28;4957607;28;20054;-76
2023/12/17 10:47:56;;;;;;;8.65;4.80;;;;;;;5.21;62.24;103127.66;4946464;28;20431;-76
2023/12/17 10:50:23;;;;;;;10.95;5.88;;;;;;;5.60;61.16;103118.84;4939488;28;20101;-77
2023/12/17 10:52:49;;;;;;;9.43;4.93;;;;;;;6.00;60.65;103120.34;4948862;28;20048;-77
2023/12/17 10:55:15;;;;;;;13.35;4.97;;;;;;;5.85;61.29;103128.78;4924927;28;20053;-76
2023/12/17 10:57:46;;;;;;;19.27;4.57;;;;;;;5.70;61.36;103125.06;4934160;28;20026;-76
2023/12/17 11:00:14;;;;;;;11.02;4.57;;;;;;;5.47;62.13;103117.75;4942530;28;20070;-76
2023/12/17 11:02:40;;;;;;;9.60;4.22;;;;;;;5.22;62.32;103117.31;4946502;28;20107;-76
2023/12/17 11:05:06;;;;;;;13.32;5.05;;;;;;;5.44;62.35;103091.78;4933615;28;20773;-76
2023/12/17 11:07:31;;;;;;;13.25;5.55;;;;;;;5.84;61.57;103105.41;4926455;28;20035;-75
2023/12/17 11:09:58;;;;;;;15.48;5.70;;;;;;;5.96;61.04;103097.78;4941065;28;20118;-75
2023/12/17 11:12:25;;;;;;;11.82;5.03;;;;;;;5.72;61.07;103094.81;4947282;28;20067;-74
2023/12/17 11:14:51;;;;;;;10.10;4.30;;;;;;;5.79;61.45;103089.78;4943041;28;20050;-74
2023/12/17 11:17:17;;;;;;;7.45;4.82;;;;;;;5.73;61.50;103101.78;4943449;28;20047;-74
2023/12/17 11:20:01;;;;;;;8.93;4.07;;;;;;;5.20;63.26;103093.09;4945359;28;20054;-75
2023/12/17 11:22:27;;;;;;;13.00;5.25;;;;;;;5.69;62.36;103092.19;4946227;28;20129;-75